Time;durP1;ratioP1;P1;durP2;ratioP2;P2;SDS_P1;SDS_P2;PMS_P1;PMS_P2;Temp;Humidity;BMP_temperature;BMP_pressure;BME280_temperature;BME280_humidity;BME280_pressure;Samples;Min_cycle;Max_cycle;Signal;HPM_P1;HPM_P2
2024/04/11 01:00:40;;;;;;;60.80;29.13;;;;;;;;;;5387286;26;20355;-38
2024/04/11 01:03:07;;;;;;;58.63;28.80;;;;;;;;;;5358978;26;20019;-39
2024/04/11 01:05:34;;;;;;;53.70;26.83;;;;;;;;;;5326249;26;19997;-38
2024/04/11 01:08:07;;;;;;;50.65;25.75;;;;;;;;;;5321688;26;20008;-41
2024/04/11 01:10:37;;;;;;;50.40;25.27;;;;;;;;;;5320503;26;20000;-39
2024/04/11 01:13:07;;;;;;;50.60;25.25;;;;;;;;;;5321878;26;20001;-39
2024/04/11 01:15:40;;;;;;;48.38;24.95;;;;;;;;;;5320067;26;20001;-39
2024/04/11 01:18:06;;;;;;;45.13;22.88;;;;;;;;;;5321745;26;20531;-39
2024/04/11 01:20:33;;;;;;;51.45;23.48;;;;;;;;;;5319459;26;20008;-38
2024/04/11 01:23:01;;;;;;;43.78;22.08;;;;;;;;;;5322248;26;20012;-53
2024/04/11 01:25:29;;;;;;;40.35;20.98;;;;;;;;;;5322441;26;20079;-45
2024/04/11 01:27:56;;;;;;;40.97;20.33;;;;;;;;;;5322143;26;19998;-46
2024/04/11 01:30:23;;;;;;;40.22;21.02;;;;;;;;;;5319808;26;20000;-51
2024/04/11 01:32:49;;;;;;;41.83;21.15;;;;;;;;;;5322521;26;20065;-62
2024/04/11 01:36:45;;;;;;;38.40;19.80;;;;;;;;;;5446195;25;20427;-46
2024/04/11 01:39:11;;;;;;;42.90;11.13;;;;;;;;;;5447636;26;20027;-50
2024/04/11 01:41:38;;;;;;;30.48;16.95;;;;;;;;;;5443549;26;20434;-40
2024/04/11 01:44:05;;;;;;;33.13;17.85;;;;;;;;;;5448057;26;20022;-57
2024/04/11 01:46:32;;;;;;;39.38;19.95;;;;;;;;;;5414048;26;20007;-51
2024/04/11 02:10:53;;;;;;;2.65;1.27;;;;;;;;;;5474931;25;22346;-56
2024/04/11 02:13:21;;;;;;;2.80;0.60;;;;;;;;;;5464589;26;20009;-62
2024/04/11 02:15:47;;;;;;;3.78;0.52;;;;;;;;;;5455270;26;19995;-53
2024/04/11 02:18:14;;;;;;;1.17;0.70;;;;;;;;;;5459655;26;20539;-62
2024/04/11 02:20:42;;;;;;;5.40;0.55;;;;;;;;;;5456653;26;20083;-62
2024/04/11 02:23:08;;;;;;;5.38;0.82;;;;;;;;;;5456866;26;20005;-61
2024/04/11 02:25:35;;;;;;;4.55;0.52;;;;;;;;;;5457560;26;19991;-63
2024/04/11 02:28:01;;;;;;;1.73;0.65;;;;;;;;;;5457927;26;20006;-63
2024/04/11 02:30:28;;;;;;;2.15;0.40;;;;;;;;;;5458399;26;20016;-63
2024/04/11 02:32:55;;;;;;;2.70;0.63;;;;;;;;;;5459833;26;19995;-63
2024/04/11 02:35:22;;;;;;;2.67;0.30;;;;;;;;;;5462362;26;19998;-61
2024/04/11 02:37:53;;;;;;;1.48;0.50;;;;;;;;;;5451119;26;20766;-61
2024/04/11 02:40:19;;;;;;;2.22;0.60;;;;;;;;;;5458583;26;20037;-60
2024/04/11 02:42:47;;;;;;;1.02;0.77;;;;;;;;;;5457377;26;20014;-61
2024/04/11 02:45:18;;;;;;;1.52;1.02;;;;;;;;;;5460729;26;20006;-54
2024/04/11 02:47:46;;;;;;;5.18;0.70;;;;;;;;;;5424435;26;20013;-59
2024/04/11 02:50:16;;;;;;;4.90;0.52;;;;;;;;;;5457024;26;20430;-61
2024/04/11 02:52:43;;;;;;;2.25;0.50;;;;;;;;;;5457503;26;20004;-59
2024/04/11 02:55:14;;;;;;;1.65;0.70;;;;;;;;;;5456178;26;19998;-59
2024/04/11 02:57:42;;;;;;;5.03;0.68;;;;;;;;;;5457321;26;20002;-60
2024/04/11 03:00:11;;;;;;;4.63;1.45;;;;;;;;;;5459368;26;20423;-58
2024/04/11 03:02:38;;;;;;;1.55;0.68;;;;;;;;;;5456688;26;20003;-58
2024/04/11 03:05:06;;;;;;;4.07;0.70;;;;;;;;;;5458278;26;20012;-61
2024/04/11 03:07:32;;;;;;;2.28;0.52;;;;;;;;;;5454920;26;20334;-62
2024/04/11 03:09:59;;;;;;;1.75;0.40;;;;;;;;;;5454780;26;20009;-61
2024/04/11 03:12:26;;;;;;;3.03;0.73;;;;;;;;;;5457785;26;20003;-61
2024/04/11 03:14:52;;;;;;;3.22;0.40;;;;;;;;;;5457851;26;20898;-56
2024/04/11 03:17:19;;;;;;;2.95;0.57;;;;;;;;;;5458365;26;20017;-61
2024/04/11 03:19:45;;;;;;;1.70;0.63;;;;;;;;;;5458025;26;20006;-61
2024/04/11 03:22:12;;;;;;;4.63;1.33;;;;;;;;;;5442166;26;20006;-62
2024/04/11 03:24:39;;;;;;;3.97;0.82;;;;;;;;;;5442919;26;20579;-60
2024/04/11 03:27:07;;;;;;;2.10;0.77;;;;;;;;;;5445319;26;20002;-58
2024/04/11 03:29:34;;;;;;;3.75;0.60;;;;;;;;;;5439465;26;20009;-61
2024/04/11 03:32:01;;;;;;;3.00;0.80;;;;;;;;;;5442819;26;20006;-59
2024/04/11 03:34:28;;;;;;;0.60;0.60;;;;;;;;;;5444502;26;20017;-60
2024/04/11 03:36:55;;;;;;;1.55;0.55;;;;;;;;;;5441401;26;19999;-61
2024/04/11 03:39:21;;;;;;;0.70;0.50;;;;;;;;;;5441057;26;20005;-61
2024/04/11 03:41:52;;;;;;;0.60;0.47;;;;;;;;;;5442328;26;20424;-64
2024/04/11 03:44:19;;;;;;;2.65;0.60;;;;;;;;;;5443227;26;20017;-61
2024/04/11 03:46:47;;;;;;;1.85;0.50;;;;;;;;;;5443194;26;20066;-62
2024/04/11 03:49:14;;;;;;;7.43;0.85;;;;;;;;;;5438483;26;20035;-61
2024/04/11 03:51:41;;;;;;;2.50;0.45;;;;;;;;;;5441588;26;22705;-60
2024/04/11 03:54:11;;;;;;;0.52;0.50;;;;;;;;;;5442829;26;20002;-57
2024/04/11 03:56:39;;;;;;;0.65;0.50;;;;;;;;;;5439105;26;20568;-60
2024/04/11 03:59:06;;;;;;;2.30;0.63;;;;;;;;;;5441618;26;20737;-62
2024/04/11 04:01:33;;;;;;;2.45;0.55;;;;;;;;;;5411019;26;20006;-59
2024/04/11 04:04:02;;;;;;;1.63;0.40;;;;;;;;;;5443125;26;20002;-61
2024/04/11 04:06:29;;;;;;;0.80;0.57;;;;;;;;;;5432064;26;20011;-60
2024/04/11 04:08:56;;;;;;;3.70;0.85;;;;;;;;;;5442546;26;20112;-60
2024/04/11 04:11:22;;;;;;;0.65;0.65;;;;;;;;;;5391260;26;20107;-63
2024/04/11 04:13:50;;;;;;;2.38;0.50;;;;;;;;;;5403818;26;20018;-62
2024/04/11 04:16:17;;;;;;;3.33;0.52;;;;;;;;;;5352198;26;20014;-60
2024/04/11 04:18:50;;;;;;;0.60;0.50;;;;;;;;;;5438912;26;20011;-60
2024/04/11 04:21:20;;;;;;;0.52;0.50;;;;;;;;;;5434582;26;20010;-60
2024/04/11 04:23:54;;;;;;;2.05;0.57;;;;;;;;;;5437943;26;20003;-60
2024/04/11 04:26:22;;;;;;;1.55;0.45;;;;;;;;;;5411647;26;19999;-61
2024/04/11 04:28:48;;;;;;;1.58;0.85;;;;;;;;;;5442052;26;20013;-61
2024/04/11 04:31:20;;;;;;;10.63;1.45;;;;;;;;;;5411181;26;19994;-59
2024/04/11 04:33:50;;;;;;;2.70;0.75;;;;;;;;;;5439715;26;20006;-59
2024/04/11 04:36:20;;;;;;;0.75;0.50;;;;;;;;;;5442972;26;20163;-60
2024/04/11 04:38:49;;;;;;;1.75;0.98;;;;;;;;;;5441251;26;20105;-58
2024/04/11 04:41:19;;;;;;;1.33;0.85;;;;;;;;;;5442071;26;20325;-57
2024/04/11 04:43:53;;;;;;;3.78;0.70;;;;;;;;;;5441001;26;19995;-58
2024/04/11 04:46:21;;;;;;;0.73;0.60;;;;;;;;;;5441398;26;20006;-60
2024/04/11 04:48:54;;;;;;;3.08;0.43;;;;;;;;;;5348554;26;20017;-56
2024/04/11 04:51:21;;;;;;;1.35;0.47;;;;;;;;;;5433906;26;20002;-62
2024/04/11 04:53:54;;;;;;;1.90;0.43;;;;;;;;;;5440468;26;20021;-60
2024/04/11 04:56:24;;;;;;;1.58;0.70;;;;;;;;;;5439999;26;19998;-62
2024/04/11 04:58:53;;;;;;;0.90;0.60;;;;;;;;;;5439986;26;20082;-62
2024/04/11 05:01:23;;;;;;;2.03;0.70;;;;;;;;;;5442190;26;20004;-64
2024/04/11 05:03:50;;;;;;;1.77;0.50;;;;;;;;;;5442970;26;19999;-60
2024/04/11 05:06:17;;;;;;;1.92;0.50;;;;;;;;;;5441637;26;20002;-60
2024/04/11 05:08:46;;;;;;;0.73;0.50;;;;;;;;;;5439333;26;19999;-61
2024/04/11 05:11:16;;;;;;;5.55;0.65;;;;;;;;;;5433230;26;20034;-58
2024/04/11 05:13:46;;;;;;;0.85;0.40;;;;;;;;;;5439482;26;20143;-60
2024/04/11 05:16:18;;;;;;;3.47;0.70;;;;;;;;;;5442897;26;20003;-62
2024/04/11 05:18:46;;;;;;;2.05;0.77;;;;;;;;;;5438738;26;19995;-61
2024/04/11 05:21:16;;;;;;;3.38;0.57;;;;;;;;;;5442190;26;22290;-58
2024/04/11 05:23:43;;;;;;;2.67;0.60;;;;;;;;;;5440461;26;20018;-60
2024/04/11 05:26:14;;;;;;;2.67;0.80;;;;;;;;;;5442055;26;20002;-62
2024/04/11 05:28:44;;;;;;;2.25;0.70;;;;;;;;;;5440183;26;20018;-58
2024/04/11 05:31:18;;;;;;;4.47;0.65;;;;;;;;;;5444061;26;20057;-62
2024/04/11 05:33:46;;;;;;;2.20;0.68;;;;;;;;;;5440111;26;20514;-55
2024/04/11 05:36:17;;;;;;;0.70;0.60;;;;;;;;;;5441590;26;20125;-61
2024/04/11 05:38:48;;;;;;;1.23;0.75;;;;;;;;;;5439640;26;19999;-58
2024/04/11 05:41:15;;;;;;;2.13;0.80;;;;;;;;;;5443644;26;20005;-59
2024/04/11 05:43:43;;;;;;;1.55;0.75;;;;;;;;;;5442572;26;20391;-61
2024/04/11 05:46:18;;;;;;;2.05;0.98;;;;;;;;;;5414496;26;19999;-59
2024/04/11 05:48:47;;;;;;;1.35;0.50;;;;;;;;;;5444836;26;20014;-58
2024/04/11 05:51:14;;;;;;;2.20;0.65;;;;;;;;;;5445999;26;20009;-60
2024/04/11 05:53:41;;;;;;;4.20;1.17;;;;;;;;;;5444095;26;20006;-59
2024/04/11 05:56:09;;;;;;;1.50;0.57;;;;;;;;;;5408766;26;20125;-58
2024/04/11 05:58:39;;;;;;;0.55;0.55;;;;;;;;;;5438665;26;20002;-58
2024/04/11 06:01:08;;;;;;;2.10;0.70;;;;;;;;;;5411294;26;20013;-60
2024/04/11 06:03:46;;;;;;;1.55;0.85;;;;;;;;;;5440943;26;20010;-61
2024/04/11 06:06:13;;;;;;;1.13;0.77;;;;;;;;;;5441215;26;20021;-59
2024/04/11 06:08:41;;;;;;;1.17;0.90;;;;;;;;;;5439977;26;20012;-59
2024/04/11 06:11:07;;;;;;;0.70;0.63;;;;;;;;;;5439147;26;20080;-59
2024/04/11 06:13:34;;;;;;;1.92;1.08;;;;;;;;;;5439508;26;19998;-60
2024/04/11 06:16:01;;;;;;;3.15;0.75;;;;;;;;;;5440222;26;20396;-62
2024/04/11 06:18:31;;;;;;;0.73;0.68;;;;;;;;;;5408285;26;20007;-61
2024/04/11 06:20:58;;;;;;;5.45;0.85;;;;;;;;;;5440847;26;19994;-60
2024/04/11 06:23:26;;;;;;;0.55;0.47;;;;;;;;;;5439574;26;20011;-59
2024/04/11 06:25:54;;;;;;;1.15;0.70;;;;;;;;;;5406143;26;20104;-59
2024/04/11 06:28:20;;;;;;;1.48;0.77;;;;;;;;;;5440661;26;19999;-60
2024/04/11 06:30:51;;;;;;;1.15;0.73;;;;;;;;;;5440223;26;20014;-58
2024/04/11 06:33:18;;;;;;;1.48;0.70;;;;;;;;;;5442520;26;20808;-60
2024/04/11 06:35:51;;;;;;;1.65;0.70;;;;;;;;;;5437221;26;20005;-60
2024/04/11 06:38:20;;;;;;;0.70;0.40;;;;;;;;;;5407847;26;20072;-58
2024/04/11 06:40:52;;;;;;;1.05;0.57;;;;;;;;;;5440155;26;20006;-59
2024/04/11 06:43:41;;;;;;;4.38;0.70;;;;;;;;;;5426910;26;19999;-59
2024/04/11 06:46:10;;;;;;;1.25;0.50;;;;;;;;;;5427326;26;20119;-58
2024/04/11 06:48:36;;;;;;;2.30;0.85;;;;;;;;;;5396156;26;20017;-60
2024/04/11 06:51:09;;;;;;;1.10;0.80;;;;;;;;;;5429280;26;20142;-58
2024/04/11 06:53:36;;;;;;;2.83;0.68;;;;;;;;;;5386317;26;20006;-59
2024/04/11 06:56:07;;;;;;;0.82;0.50;;;;;;;;;;5428661;26;20007;-61
2024/04/11 06:58:36;;;;;;;2.08;0.80;;;;;;;;;;5394158;26;20021;-60
2024/04/11 07:01:04;;;;;;;1.60;0.82;;;;;;;;;;5419276;26;20006;-58
2024/04/11 07:03:31;;;;;;;0.90;0.50;;;;;;;;;;5400783;26;20018;-58
2024/04/11 07:06:24;;;;;;;1.10;0.68;;;;;;;;;;5390882;26;20127;-60
2024/04/11 07:08:52;;;;;;;0.40;0.40;;;;;;;;;;5428761;26;20014;-57
2024/04/11 07:11:19;;;;;;;0.80;0.57;;;;;;;;;;5429965;26;20099;-59
2024/04/11 07:13:46;;;;;;;1.15;0.50;;;;;;;;;;5430552;26;22358;-59
2024/04/11 07:16:16;;;;;;;0.85;0.80;;;;;;;;;;5328344;26;22605;-59
2024/04/11 07:18:48;;;;;;;1.23;0.50;;;;;;;;;;5359288;26;20082;-59
2024/04/11 07:21:17;;;;;;;0.90;0.70;;;;;;;;;;5370853;26;20452;-57
2024/04/11 07:23:54;;;;;;;0.90;0.50;;;;;;;;;;5356014;26;20028;-59
2024/04/11 07:26:24;;;;;;;1.90;0.47;;;;;;;;;;5366782;26;20479;-58
2024/04/11 07:28:54;;;;;;;1.70;0.70;;;;;;;;;;5369217;26;20907;-58
2024/04/11 07:31:41;;;;;;;0.85;0.45;;;;;;;;;;5333834;26;20001;-60
2024/04/11 07:34:08;;;;;;;2.70;0.68;;;;;;;;;;5331651;26;20026;-58
2024/04/11 07:36:41;;;;;;;1.17;0.63;;;;;;;;;;5332896;26;20001;-56
2024/04/11 07:39:08;;;;;;;0.63;0.50;;;;;;;;;;5331650;26;20028;-58
2024/04/11 07:41:44;;;;;;;4.38;0.82;;;;;;;;;;5283999;26;20106;-59
2024/04/11 07:44:11;;;;;;;2.97;0.68;;;;;;;;;;5281511;26;20383;-61
2024/04/11 07:46:38;;;;;;;1.40;0.60;;;;;;;;;;5282246;26;20007;-56
2024/04/11 07:49:07;;;;;;;2.08;0.63;;;;;;;;;;5331054;26;20032;-59
2024/04/11 07:51:37;;;;;;;1.50;0.50;;;;;;;;;;5333516;26;20443;-59
2024/04/11 07:54:04;;;;;;;0.55;0.45;;;;;;;;;;5352302;26;20023;-58
2024/04/11 07:56:34;;;;;;;0.65;0.63;;;;;;;;;;5359688;26;20019;-57
2024/04/11 07:59:02;;;;;;;0.55;0.40;;;;;;;;;;5359028;26;20008;-59
2024/04/11 08:01:31;;;;;;;1.17;0.40;;;;;;;;;;5329611;26;20419;-56
2024/04/11 08:04:00;;;;;;;0.98;0.50;;;;;;;;;;5357994;26;20344;-59
2024/04/11 08:06:27;;;;;;;1.92;0.63;;;;;;;;;;5357079;26;20673;-58
2024/04/11 08:08:54;;;;;;;1.05;0.60;;;;;;;;;;5375264;26;20005;-58
2024/04/11 08:11:20;;;;;;;2.83;0.55;;;;;;;;;;5403281;26;19995;-58
2024/04/11 08:13:47;;;;;;;1.63;0.70;;;;;;;;;;5408116;26;20340;-59
2024/04/11 08:16:14;;;;;;;1.17;0.63;;;;;;;;;;5434093;26;20007;-60
2024/04/11 08:18:40;;;;;;;3.25;0.85;;;;;;;;;;5441650;26;20024;-57
2024/04/11 08:21:11;;;;;;;4.03;0.55;;;;;;;;;;5446782;26;20079;-60
2024/04/11 08:23:43;;;;;;;3.05;0.52;;;;;;;;;;5444047;26;20007;-60
2024/04/11 08:26:13;;;;;;;0.90;0.45;;;;;;;;;;5405338;26;20335;-59
2024/04/11 08:28:41;;;;;;;1.85;0.60;;;;;;;;;;5439324;26;20002;-60
2024/04/11 08:31:08;;;;;;;0.73;0.47;;;;;;;;;;5445827;26;20055;-60
2024/04/11 08:33:36;;;;;;;1.00;0.60;;;;;;;;;;5444547;26;19999;-57
2024/04/11 08:36:08;;;;;;;0.60;0.47;;;;;;;;;;5443220;26;21032;-59
2024/04/11 08:38:35;;;;;;;0.45;0.40;;;;;;;;;;5439871;26;19995;-60
2024/04/11 08:41:08;;;;;;;0.90;0.60;;;;;;;;;;5445137;26;20066;-59
2024/04/11 08:43:35;;;;;;;0.85;0.68;;;;;;;;;;5443395;26;20005;-55
2024/04/11 08:46:08;;;;;;;1.95;0.70;;;;;;;;;;5443909;26;19999;-57
2024/04/11 08:48:37;;;;;;;0.80;0.57;;;;;;;;;;5443948;26;20014;-59
2024/04/11 08:51:19;;;;;;;0.82;0.45;;;;;;;;;;5411451;26;20018;-56
2024/04/11 08:53:46;;;;;;;1.60;0.52;;;;;;;;;;5441365;26;20007;-58
2024/04/11 08:56:14;;;;;;;1.70;0.90;;;;;;;;;;5442483;26;20007;-57
2024/04/11 08:58:43;;;;;;;2.42;0.65;;;;;;;;;;5439676;26;20017;-56
2024/04/11 09:01:09;;;;;;;2.38;0.82;;;;;;;;;;5442014;26;20050;-57
2024/04/11 09:03:40;;;;;;;0.90;0.70;;;;;;;;;;5442284;26;20007;-57
2024/04/11 09:06:11;;;;;;;0.57;0.47;;;;;;;;;;5440051;26;20006;-59
2024/04/11 09:08:40;;;;;;;1.35;0.55;;;;;;;;;;5439429;26;20002;-58
2024/04/11 09:11:06;;;;;;;1.05;0.75;;;;;;;;;;5441766;26;20564;-57
2024/04/11 09:13:33;;;;;;;2.50;0.55;;;;;;;;;;5438784;26;20424;-59
2024/04/11 09:16:06;;;;;;;3.78;0.60;;;;;;;;;;5440398;26;19995;-55
2024/04/11 09:18:33;;;;;;;1.95;0.70;;;;;;;;;;5438535;26;20002;-57
2024/04/11 09:21:05;;;;;;;4.22;0.75;;;;;;;;;;5437284;26;20075;-57
2024/04/11 09:23:44;;;;;;;4.50;0.60;;;;;;;;;;5439802;26;20014;-56
2024/04/11 09:26:13;;;;;;;2.50;0.50;;;;;;;;;;5439106;26;20012;-58
2024/04/11 09:28:40;;;;;;;1.10;0.73;;;;;;;;;;5439920;26;20346;-57
2024/04/11 09:31:10;;;;;;;1.42;0.60;;;;;;;;;;5436665;26;20066;-56
2024/04/11 09:33:39;;;;;;;0.95;0.70;;;;;;;;;;5437703;26;20001;-55
2024/04/11 09:36:09;;;;;;;1.17;0.65;;;;;;;;;;5441000;26;20018;-59
2024/04/11 09:38:36;;;;;;;0.55;0.50;;;;;;;;;;5440218;26;20611;-58
2024/04/11 09:41:11;;;;;;;1.05;0.50;;;;;;;;;;5440760;26;20029;-53
2024/04/11 09:43:45;;;;;;;3.08;0.68;;;;;;;;;;5437622;26;20027;-61
2024/04/11 09:46:17;;;;;;;1.20;0.60;;;;;;;;;;5442700;26;20112;-59
2024/04/11 09:48:44;;;;;;;;;;;;;;;;;;5441894;26;20494;-59
2024/04/11 09:51:15;;;;;;;3.33;0.60;;;;;;;;;;5440709;26;19936;-55
2024/04/11 09:53:42;;;;;;;2.45;0.90;;;;;;;;;;5438144;26;19995;-59
2024/04/11 09:56:13;;;;;;;1.10;0.77;;;;;;;;;;5438816;26;20009;-61
2024/04/11 09:58:43;;;;;;;1.67;0.68;;;;;;;;;;5439741;26;20070;-57
2024/04/11 10:01:16;;;;;;;3.00;0.85;;;;;;;;;;5441527;26;20454;-57
2024/04/11 10:03:46;;;;;;;1.75;0.75;;;;;;;;;;5439166;26;20015;-60
2024/04/11 10:06:13;;;;;;;2.72;0.50;;;;;;;;;;5438755;26;19998;-58
2024/04/11 10:08:42;;;;;;;0.88;0.50;;;;;;;;;;5440479;26;20576;-57
2024/04/11 10:11:12;;;;;;;0.57;0.45;;;;;;;;;;5406118;26;19994;-58
2024/04/11 10:13:40;;;;;;;1.38;0.60;;;;;;;;;;5438767;26;20080;-59
2024/04/11 10:16:24;;;;;;;2.67;0.80;;;;;;;;;;5440749;26;20009;-63
2024/04/11 10:18:55;;;;;;;1.85;0.32;;;;;;;;;;5440598;26;20002;-59
2024/04/11 10:21:25;;;;;;;0.50;0.40;;;;;;;;;;5410585;26;20915;-57
2024/04/11 10:23:53;;;;;;;4.22;0.98;;;;;;;;;;5442992;26;19994;-58
2024/04/11 10:26:29;;;;;;;0.90;0.57;;;;;;;;;;5440313;26;20042;-57
2024/04/11 10:28:57;;;;;;;4.95;0.93;;;;;;;;;;5441607;26;22268;-59
2024/04/11 10:31:25;;;;;;;1.85;0.70;;;;;;;;;;5442161;26;20109;-59
2024/04/11 10:34:12;;;;;;;1.15;0.63;;;;;;;;;;5446519;26;19997;-59
2024/04/11 10:36:42;;;;;;;1.23;0.60;;;;;;;;;;5446424;26;22140;-61
2024/04/11 10:39:12;;;;;;;2.58;0.73;;;;;;;;;;5444323;26;20003;-59
2024/04/11 10:41:38;;;;;;;0.93;0.50;;;;;;;;;;5442466;26;19994;-60
2024/04/11 10:44:08;;;;;;;1.83;0.45;;;;;;;;;;5444451;26;19995;-61
2024/04/11 10:46:38;;;;;;;1.00;0.60;;;;;;;;;;5442672;26;20002;-60
2024/04/11 10:49:28;;;;;;;1.27;0.88;;;;;;;;;;5441980;26;20023;-58
2024/04/11 10:51:58;;;;;;;3.40;0.55;;;;;;;;;;5442113;26;20514;-58
2024/04/11 10:54:30;;;;;;;0.90;0.70;;;;;;;;;;5441940;26;20570;-59
2024/04/11 10:56:58;;;;;;;0.82;0.65;;;;;;;;;;5443891;26;19999;-58
2024/04/11 10:59:27;;;;;;;1.40;0.80;;;;;;;;;;5442339;26;19998;-58
2024/04/11 11:02:02;;;;;;;1.45;0.50;;;;;;;;;;5440373;26;20011;-58
2024/04/11 11:04:32;;;;;;;2.75;0.55;;;;;;;;;;5444336;26;20003;-57
2024/04/11 11:07:01;;;;;;;1.65;0.80;;;;;;;;;;5445102;26;20002;-59
2024/04/11 11:09:28;;;;;;;3.08;0.63;;;;;;;;;;5442285;26;20101;-59
2024/04/11 11:11:55;;;;;;;1.38;0.60;;;;;;;;;;5442392;26;19994;-60
2024/04/11 11:14:25;;;;;;;3.95;0.52;;;;;;;;;;5410682;26;20002;-59
2024/04/11 11:16:52;;;;;;;1.13;0.68;;;;;;;;;;5441254;26;20010;-58
2024/04/11 11:19:19;;;;;;;3.75;0.75;;;;;;;;;;5445242;26;20421;-61
2024/04/11 11:21:59;;;;;;;3.53;0.63;;;;;;;;;;5441902;26;19998;-62
2024/04/11 11:24:27;;;;;;;1.90;0.73;;;;;;;;;;5443785;26;20057;-58
2024/04/11 11:26:57;;;;;;;2.67;0.70;;;;;;;;;;5441578;26;20006;-59
2024/04/11 11:29:27;;;;;;;2.55;0.68;;;;;;;;;;5443794;26;20014;-58
2024/04/11 11:32:01;;;;;;;4.40;0.95;;;;;;;;;;5444877;26;20011;-59
2024/04/11 11:34:30;;;;;;;2.13;0.63;;;;;;;;;;5446449;26;20404;-58
2024/04/11 11:37:00;;;;;;;3.28;1.00;;;;;;;;;;5444565;26;20236;-60
2024/04/11 11:39:27;;;;;;;1.30;0.82;;;;;;;;;;5412312;26;20093;-57
2024/04/11 11:42:19;;;;;;;8.95;0.90;;;;;;;;;;5445564;26;20043;-58
2024/04/11 11:47:34;;;;;;;1.05;0.70;;;;;;;;;;5447178;26;20002;-56
2024/04/11 11:50:07;;;;;;;5.85;0.95;;;;;;;;;;5443072;26;20386;-59
2024/04/11 11:52:41;;;;;;;0.73;0.50;;;;;;;;;;5443087;26;20052;-58
2024/04/11 11:55:07;;;;;;;0.70;0.60;;;;;;;;;;5443451;26;20038;-56
2024/04/11 11:57:40;;;;;;;1.15;0.57;;;;;;;;;;5442209;26;20053;-56
2024/04/11 12:00:32;;;;;;;3.03;0.82;;;;;;;;;;5442460;26;20006;-59
2024/04/11 12:03:00;;;;;;;2.67;0.93;;;;;;;;;;5407710;26;20013;-54
2024/04/11 12:05:33;;;;;;;1.63;0.55;;;;;;;;;;5404297;26;20076;-55
2024/04/11 12:08:06;;;;;;;2.05;1.30;;;;;;;;;;5390041;26;20007;-58
2024/04/11 12:13:30;;;;;;;4.70;1.02;;;;;;;;;;5404260;26;20005;-57
2024/04/11 12:15:57;;;;;;;3.92;1.13;;;;;;;;;;5407393;26;20002;-56
2024/04/11 12:18:24;;;;;;;5.10;1.08;;;;;;;;;;5400937;26;20007;-56
2024/04/11 12:20:51;;;;;;;1.60;0.93;;;;;;;;;;5370845;26;20017;-58
2024/04/11 12:23:22;;;;;;;1.15;0.73;;;;;;;;;;5438157;26;19999;-56
2024/04/11 12:25:50;;;;;;;4.57;1.00;;;;;;;;;;5441679;26;20010;-58
2024/04/11 12:28:21;;;;;;;1.55;0.77;;;;;;;;;;5440750;26;20446;-60
2024/04/11 12:30:59;;;;;;;3.65;1.00;;;;;;;;;;5438127;26;20003;-56
2024/04/11 12:33:31;;;;;;;2.33;0.80;;;;;;;;;;5441129;26;20334;-56
2024/04/11 12:36:09;;;;;;;6.00;1.95;;;;;;;;;;5444664;26;20039;-56
2024/04/11 12:38:39;;;;;;;9.90;1.80;;;;;;;;;;5440088;26;19998;-58
2024/04/11 12:41:13;;;;;;;6.72;1.23;;;;;;;;;;5444990;26;20041;-58
2024/04/11 12:43:41;;;;;;;6.07;1.42;;;;;;;;;;5440342;26;20007;-56
2024/04/11 12:46:09;;;;;;;7.68;1.50;;;;;;;;;;5444052;26;20351;-52
2024/04/11 12:48:38;;;;;;;3.20;1.42;;;;;;;;;;5443356;26;20010;-55
2024/04/11 12:51:06;;;;;;;3.45;1.65;;;;;;;;;;5439667;26;20438;-55
2024/04/11 12:53:35;;;;;;;3.72;1.05;;;;;;;;;;5439855;26;20021;-56
2024/04/11 12:56:06;;;;;;;5.07;1.50;;;;;;;;;;5442980;26;20011;-58
2024/04/11 12:58:41;;;;;;;4.03;1.45;;;;;;;;;;5442306;26;20007;-56
2024/04/11 13:01:10;;;;;;;4.07;1.20;;;;;;;;;;5413854;26;20083;-56
2024/04/11 13:03:54;;;;;;;7.65;1.70;;;;;;;;;;5439085;26;20000;-59
2024/04/11 13:06:36;;;;;;;3.65;1.55;;;;;;;;;;5440745;26;19999;-59
2024/04/11 13:09:18;;;;;;;6.10;1.48;;;;;;;;;;5410762;26;20054;-57
2024/04/11 13:11:49;;;;;;;5.82;1.33;;;;;;;;;;5438439;26;20007;-58
2024/04/11 13:14:18;;;;;;;7.88;2.28;;;;;;;;;;5439526;26;19994;-57
2024/04/11 13:16:50;;;;;;;10.70;1.85;;;;;;;;;;5409116;26;20011;-58
2024/04/11 13:19:20;;;;;;;12.27;2.28;;;;;;;;;;5440115;26;20087;-56
2024/04/11 13:22:02;;;;;;;4.22;1.35;;;;;;;;;;5440093;26;20473;-56
2024/04/11 13:24:59;;;;;;;3.17;1.58;;;;;;;;;;5439668;26;19999;-59
2024/04/11 13:27:37;;;;;;;11.35;2.05;;;;;;;;;;5440523;26;20063;-56
2024/04/11 13:30:11;;;;;;;11.00;1.40;;;;;;;;;;5411084;26;19999;-58
2024/04/11 13:32:40;;;;;;;9.93;1.60;;;;;;;;;;5443504;26;20095;-56
2024/04/11 13:35:12;;;;;;;24.00;2.55;;;;;;;;;;5440515;26;20016;-55
2024/04/11 13:37:40;;;;;;;6.07;1.67;;;;;;;;;;5441525;26;19994;-54
2024/04/11 13:42:55;;;;;;;15.27;1.77;;;;;;;;;;5441034;26;20013;-57
2024/04/11 13:45:24;;;;;;;3.72;1.33;;;;;;;;;;5439702;26;20550;-58
2024/04/11 13:47:58;;;;;;;8.23;1.45;;;;;;;;;;5441881;26;19998;-57
2024/04/11 13:50:34;;;;;;;7.28;1.58;;;;;;;;;;5441429;26;20012;-55
2024/04/11 13:53:04;;;;;;;5.03;1.63;;;;;;;;;;5441030;26;21722;-54
2024/04/11 13:55:32;;;;;;;7.88;1.55;;;;;;;;;;5441004;26;20019;-51
2024/04/11 13:58:01;;;;;;;5.35;1.65;;;;;;;;;;5442350;26;20289;-55
2024/04/11 14:00:36;;;;;;;6.70;1.30;;;;;;;;;;5437239;26;20067;-54
2024/04/11 14:03:26;;;;;;;7.78;1.10;;;;;;;;;;5441523;26;20010;-55
2024/04/11 14:08:48;;;;;;;8.93;1.60;;;;;;;;;;5365098;26;20007;-58
2024/04/11 14:11:22;;;;;;;4.28;1.45;;;;;;;;;;5410951;26;20002;-52
2024/04/11 14:13:53;;;;;;;4.30;1.33;;;;;;;;;;5442256;26;20039;-57
2024/04/11 14:16:31;;;;;;;4.20;1.33;;;;;;;;;;5441490;26;20019;-55
2024/04/11 14:18:59;;;;;;;2.65;1.25;;;;;;;;;;5437254;26;19999;-55
2024/04/11 14:24:24;;;;;;;4.82;1.60;;;;;;;;;;5441166;26;20050;-56
2024/04/11 14:29:22;;;;;;;4.13;1.50;;;;;;;;;;5442465;26;20790;-57
2024/04/11 14:31:49;;;;;;;4.07;1.35;;;;;;;;;;5443662;26;20108;-58
2024/04/11 14:39:34;;;;;;;5.55;1.33;;;;;;;;;;5440182;26;20528;-58
2024/04/11 14:42:04;;;;;;;6.10;1.75;;;;;;;;;;5440296;26;20003;-57
2024/04/11 14:44:36;;;;;;;6.05;1.50;;;;;;;;;;5438926;26;20011;-56
2024/04/11 14:47:21;;;;;;;11.07;1.98;;;;;;;;;;5411475;26;20003;-56
2024/04/11 14:49:59;;;;;;;8.30;1.50;;;;;;;;;;5442041;26;19995;-55
2024/04/11 14:52:31;;;;;;;10.00;1.90;;;;;;;;;;5442906;26;20007;-55
2024/04/11 14:54:58;;;;;;;15.68;1.92;;;;;;;;;;5443108;26;20087;-56
2024/04/11 14:57:25;;;;;;;10.90;1.83;;;;;;;;;;5439383;26;20869;-58
2024/04/11 14:59:58;;;;;;;5.45;1.90;;;;;;;;;;5441070;26;20018;-55
2024/04/11 15:02:31;;;;;;;9.25;2.20;;;;;;;;;;5440445;26;20125;-58
2024/04/11 15:05:01;;;;;;;4.68;1.58;;;;;;;;;;5439641;26;20011;-57
2024/04/11 15:07:33;;;;;;;8.85;1.27;;;;;;;;;;5440960;26;20025;-56
2024/04/11 15:10:16;;;;;;;9.93;1.75;;;;;;;;;;5439556;26;19995;-57
2024/04/11 15:12:43;;;;;;;6.68;1.85;;;;;;;;;;5439550;26;20851;-57
2024/04/11 15:15:14;;;;;;;14.68;2.28;;;;;;;;;;5438811;26;20006;-55
2024/04/11 15:17:59;;;;;;;5.53;1.75;;;;;;;;;;5441183;26;20661;-55
2024/04/11 15:20:32;;;;;;;4.38;1.52;;;;;;;;;;5442431;26;20014;-53
2024/04/11 15:23:08;;;;;;;4.30;1.30;;;;;;;;;;5441967;26;20021;-56
2024/04/11 15:25:35;;;;;;;8.27;1.50;;;;;;;;;;5442009;26;20430;-55
2024/04/11 15:28:21;;;;;;;8.25;2.20;;;;;;;;;;5444349;26;19999;-55
2024/04/11 15:30:49;;;;;;;5.88;1.52;;;;;;;;;;5442705;26;19995;-56
2024/04/11 15:33:19;;;;;;;7.10;1.25;;;;;;;;;;5441350;26;20010;-56
2024/04/11 15:35:49;;;;;;;6.40;1.20;;;;;;;;;;5442305;26;20645;-53
2024/04/11 15:38:19;;;;;;;8.55;1.42;;;;;;;;;;5444930;26;20063;-55
2024/04/11 15:40:54;;;;;;;6.43;1.45;;;;;;;;;;5440417;26;20018;-56
2024/04/11 15:43:21;;;;;;;6.68;1.52;;;;;;;;;;5441768;26;20035;-55
2024/04/11 15:46:08;;;;;;;4.32;2.08;;;;;;;;;;5358746;26;20671;-56
2024/04/11 15:48:37;;;;;;;7.47;1.60;;;;;;;;;;5359055;26;20027;-56
2024/04/11 15:51:07;;;;;;;5.30;1.55;;;;;;;;;;5358001;26;20000;-57
2024/04/11 15:53:38;;;;;;;6.40;1.48;;;;;;;;;;5358125;26;20012;-56
2024/04/11 15:56:06;;;;;;;8.38;1.70;;;;;;;;;;5328044;26;20044;-55
2024/04/11 15:58:36;;;;;;;7.10;1.48;;;;;;;;;;5357391;26;20008;-56
2024/04/11 16:01:27;;;;;;;5.10;1.30;;;;;;;;;;5358090;26;20000;-58
2024/04/11 16:03:54;;;;;;;;;;;;;;;;;;5357455;26;20014;-53
2024/04/11 16:06:25;;;;;;;4.45;1.35;;;;;;;;;;5357084;26;22073;-57
2024/04/11 16:08:58;;;;;;;4.00;1.48;;;;;;;;;;5356961;26;20004;-57
2024/04/11 16:11:24;;;;;;;6.80;1.50;;;;;;;;;;5356205;26;20004;-58
2024/04/11 16:13:56;;;;;;;4.05;1.40;;;;;;;;;;5359403;26;20012;-59
2024/04/11 16:16:29;;;;;;;3.40;1.10;;;;;;;;;;5357870;26;20008;-58
2024/04/11 16:18:56;;;;;;;4.55;1.55;;;;;;;;;;5357183;26;20004;-56
2024/04/11 16:21:23;;;;;;;11.43;1.58;;;;;;;;;;5353305;26;20004;-56
2024/04/11 16:23:56;;;;;;;4.43;1.20;;;;;;;;;;5409090;26;20039;-56
2024/04/11 16:26:29;;;;;;;2.78;1.27;;;;;;;;;;5441289;26;19999;-56
2024/04/11 16:28:56;;;;;;;8.30;1.58;;;;;;;;;;5439209;26;20074;-58
2024/04/11 16:31:27;;;;;;;5.28;1.23;;;;;;;;;;5438681;26;20022;-56
2024/04/11 16:33:57;;;;;;;6.95;1.38;;;;;;;;;;5350300;26;20013;-58
2024/04/11 16:36:27;;;;;;;3.55;1.10;;;;;;;;;;5442452;26;19998;-56
2024/04/11 16:38:57;;;;;;;1.83;1.00;;;;;;;;;;5409879;26;19994;-58
2024/04/11 16:41:40;;;;;;;2.17;1.08;;;;;;;;;;5440968;26;19994;-56
2024/04/11 16:44:10;;;;;;;4.57;1.08;;;;;;;;;;5442066;26;19999;-58